Time;durP1;ratioP1;P1;durP2;ratioP2;P2;SDS_P1;SDS_P2;PMS_P1;PMS_P2;Temp;Humidity;BMP_temperature;BMP_pressure;BME280_temperature;BME280_humidity;BME280_pressure;Samples;Min_cycle;Max_cycle;Signal;HPM_P1;HPM_P2
2023/02/27 00:00:19;;;;;;;;;;;;;;;2.08;76.17;102848.72;5030380;28;19921;-71
2023/02/27 00:02:47;;;;;;;;;;;;;;;2.08;77.09;102853.91;5036732;28;19925;-72
2023/02/27 00:05:14;;;;;;;;;;;;;;;2.07;76.50;102851.34;5021324;28;20668;-71
2023/02/27 00:07:41;;;;;;;;;;;;;;;2.03;76.50;102850.56;5040362;28;20006;-70
2023/02/27 00:10:08;;;;;;;;;;;;;;;2.01;77.41;102849.78;5037232;28;19932;-70
2023/02/27 00:12:36;;;;;;;;;;;;;;;1.96;76.96;102847.31;5029706;28;19925;-71
2023/02/27 00:15:07;;;;;;;;;;;;;;;1.97;77.78;102856.75;5024381;28;19925;-71
2023/02/27 00:17:33;;;;;;;;;;;;;;;1.95;77.27;102857.72;5032121;28;19921;-70
2023/02/27 00:20:00;;;;;;;;;;;;;;;1.91;77.17;102853.50;5027710;28;19960;-71
2023/02/27 00:22:26;;;;;;;;;;;;;;;1.87;77.59;102860.50;5032700;28;20006;-72
2023/02/27 00:24:53;;;;;;;;;;;;;;;1.84;77.67;102857.13;5037825;28;20393;-71
2023/02/27 00:27:19;;;;;;;;;;;;;;;1.85;78.67;102864.03;5034252;28;19924;-71
2023/02/27 00:29:45;;;;;;;;;;;;;;;1.83;77.77;102856.28;5023933;28;19924;-72
2023/02/27 00:32:11;;;;;;;;;;;;;;;1.83;77.06;102855.44;5035731;28;19929;-70
2023/02/27 00:34:38;;;;;;;;;;;;;;;1.81;77.48;102857.22;5024158;28;19952;-71
2023/02/27 00:37:04;;;;;;;;;;;;;;;1.79;77.51;102857.25;5027109;28;19921;-71
2023/02/27 00:39:30;;;;;;;;;;;;;;;1.80;78.22;102852.94;5032694;28;20441;-70
2023/02/27 00:41:57;;;;;;;;;;;;;;;1.74;77.70;102859.94;5036253;28;20564;-70
2023/02/27 00:44:23;;;;;;;;;;;;;;;1.73;78.30;102849.66;5035527;28;20753;-71
2023/02/27 00:46:49;;;;;;;;;;;;;;;1.76;78.25;102852.16;5030549;28;19938;-71
2023/02/27 00:49:16;;;;;;;;;;;;;;;1.74;78.69;102853.94;5039192;28;19960;-72
2023/02/27 00:51:43;;;;;;;;;;;;;;;1.68;78.86;102854.94;5026612;28;19931;-71
2023/02/27 00:54:09;;;;;;;;;;;;;;;1.66;78.49;102855.88;5024728;28;19924;-71
2023/02/27 00:56:36;;;;;;;;;;;;;;;1.61;79.56;102853.41;5029308;28;20365;-71
2023/02/27 00:59:03;;;;;;;;;;;;;;;1.56;79.33;102844.91;5044712;28;19934;-70
2023/02/27 01:01:29;;;;;;;;;;;;;;;1.55;79.71;102849.22;5034442;28;19929;-71
2023/02/27 01:03:55;;;;;;;;;;;;;;;1.55;79.88;102848.41;5021522;28;20416;-72
2023/02/27 01:06:21;;;;;;;;;;;;;;;1.52;80.81;102851.88;5036876;28;19925;-68
2023/02/27 01:08:48;;;;;;;;;;;;;;;1.54;80.50;102847.53;5027800;28;19925;-68
2023/02/27 01:11:14;;;;;;;;;;;;;;;1.53;80.09;102844.97;5028000;28;19921;-72
2023/02/27 01:13:40;;;;;;;;;;;;;;;1.53;79.97;102848.41;5025235;28;19921;-71
2023/02/27 01:16:09;;;;;;;;;;;;;;;1.54;80.11;102857.03;5033354;28;19925;-71
2023/02/27 01:18:35;;;;;;;;;;;;;;;1.53;80.06;102845.84;5038704;28;19947;-69
2023/02/27 01:21:02;;;;;;;;;;;;;;;1.50;80.57;102848.47;5029654;28;19929;-69
2023/02/27 01:23:28;;;;;;;;;;;;;;;1.50;81.92;102853.66;5036367;28;20536;-71
2023/02/27 01:25:55;;;;;;;;;;;;;;;1.49;82.59;102856.28;5036698;28;19928;-69
2023/02/27 01:28:21;;;;;;;;;;;;;;;1.47;83.00;102855.47;5037467;28;19931;-70
2023/02/27 01:30:47;;;;;;;;;;;;;;;1.44;81.63;102850.38;5036363;28;19967;-68
2023/02/27 01:33:14;;;;;;;;;;;;;;;1.43;82.23;102853.84;5036436;28;19964;-69
2023/02/27 01:35:40;;;;;;;;;;;;;;;1.44;82.91;102850.38;5033369;28;19982;-70
2023/02/27 01:38:06;;;;;;;;;;;;;;;1.43;82.03;102856.44;5031331;28;19925;-71
2023/02/27 01:40:37;;;;;;;;;;;;;;;1.39;82.13;102850.47;5041533;28;20366;-70
2023/02/27 01:43:04;;;;;;;;;;;;;;;1.38;83.45;102841.88;5030102;28;19925;-69
2023/02/27 01:45:38;;;;;;;;;;;;;;;1.36;82.58;102848.81;5044438;28;19932;-69
2023/02/27 01:48:04;;;;;;;;;;;;;;;1.37;82.90;102849.66;5035713;28;19928;-69
2023/02/27 01:50:32;;;;;;;;;;;;;;;1.32;82.31;102854.13;5041180;28;20433;-69
2023/02/27 01:53:00;;;;;;;;;;;;;;;1.25;83.38;102850.81;5025729;28;19924;-70
2023/02/27 01:55:27;;;;;;;;;;;;;;;1.21;82.40;102840.59;5038361;28;19921;-70
2023/02/27 01:57:54;;;;;;;;;;;;;;;1.17;83.57;102845.81;5039231;28;19924;-70
2023/02/27 02:00:20;;;;;;;;;;;;;;;1.14;83.62;102848.50;5038032;28;19924;-64
2023/02/27 02:03:10;;;;;;;;;;;;;;;1.13;83.85;102848.53;5040030;28;20445;-63
2023/02/27 02:05:37;;;;;;;;;;;;;;;1.11;83.93;102843.38;5019894;28;19925;-64
2023/02/27 02:08:04;;;;;;;;;;;;;;;1.10;84.23;102843.44;5032526;28;20015;-64
2023/02/27 02:10:31;;;;;;;;;;;;;;;1.08;83.73;102835.72;5036036;28;19925;-67
2023/02/27 02:12:57;;;;;;;;;;;;;;;1.06;84.75;102841.78;5022307;28;19932;-64
2023/02/27 02:15:28;;;;;;;;;;;;;;;1.05;83.97;102847.84;5030132;28;19943;-63
2023/02/27 02:18:18;;;;;;;;;;;;;;;1.05;84.60;102840.94;5034296;28;19991;-64
2023/02/27 02:21:00;;;;;;;;;;;;;;;1.08;84.75;102835.72;5045078;28;20003;-64
2023/02/27 02:23:30;;;;;;;;;;;;;;;1.11;84.14;102851.13;5033567;28;19928;-63
2023/02/27 02:26:08;;;;;;;;;;;;;;;1.08;83.37;102846.06;5037103;28;19931;-63
2023/02/27 02:28:52;;;;;;;;;;;;;;;1.07;83.57;102848.66;5035655;28;20635;-64
2023/02/27 02:31:18;;;;;;;;;;;;;;;1.03;84.03;102840.13;5040275;28;19947;-63
2023/02/27 02:33:48;;;;;;;;;;;;;;;0.93;83.91;102844.66;5030645;28;19921;-64
2023/02/27 02:36:30;;;;;;;;;;;;;;;0.95;84.80;102839.44;5034198;28;19924;-64
2023/02/27 02:39:05;;;;;;;;;;;;;;;0.89;85.16;102840.44;5043161;28;19925;-63
2023/02/27 02:41:32;;;;;;;;;;;;;;;0.86;84.82;102848.25;5033559;28;20309;-66
2023/02/27 02:44:01;;;;;;;;;;;;;;;0.82;87.00;102830.28;5022097;28;20490;-65
2023/02/27 02:46:31;;;;;;;;;;;;;;;0.78;86.62;102837.22;5025409;28;20577;-63
2023/02/27 02:48:57;;;;;;;;;;;;;;;0.74;86.64;102836.44;5040120;28;20392;-64
2023/02/27 02:51:33;;;;;;;;;;;;;;;0.77;87.41;102838.13;5038189;28;19935;-66
2023/02/27 02:54:00;;;;;;;;;;;;;;;0.71;89.30;102833.94;5029293;28;20358;-64
2023/02/27 02:56:42;;;;;;;;;;;;;;;0.73;89.80;102837.34;5019637;28;19932;-64
2023/02/27 02:59:15;;;;;;;;;;;;;;;0.75;89.12;102843.31;5032512;28;19925;-65
2023/02/27 03:01:44;;;;;;;;;;;;;;;0.76;88.72;102846.75;5039286;28;19979;-64
2023/02/27 03:04:27;;;;;;;;;;;;;;;0.75;89.32;102848.50;5024735;28;19936;-64
2023/02/27 03:07:01;;;;;;;;;;;;;;;0.71;89.69;102856.34;5025982;28;19931;-64
2023/02/27 03:09:32;;;;;;;;;;;;;;;0.69;89.40;102858.97;5032034;28;19924;-65
2023/02/27 03:12:01;;;;;;;;;;;;;;;0.65;90.96;102859.91;5023884;28;19932;-64
2023/02/27 03:14:36;;;;;;;;;;;;;;;0.65;91.76;102857.34;5042699;28;19931;-64
2023/02/27 03:17:05;;;;;;;;;;;;;;;0.64;90.41;102849.59;5038748;28;20448;-64
2023/02/27 03:19:53;;;;;;;;;;;;;;;0.58;90.85;102851.44;5035403;28;20472;-64
2023/02/27 03:22:31;;;;;;;;;;;;;;;0.57;91.87;102851.47;5035326;28;20369;-65
2023/02/27 03:24:59;;;;;;;;;;;;;;;0.55;93.41;102861.84;5024101;28;19924;-65
2023/02/27 03:27:29;;;;;;;;;;;;;;;0.53;90.87;102858.44;5028303;28;19925;-64
2023/02/27 03:30:28;;;;;;;;;;;;;;;0.56;91.19;102860.09;5028800;28;19987;-64
2023/02/27 03:33:00;;;;;;;;;;;;;;;0.55;90.63;102867.00;5016244;28;19924;-65
2023/02/27 03:35:33;;;;;;;;;;;;;;;0.53;90.15;102862.72;5033781;28;19932;-64
2023/02/27 03:38:05;;;;;;;;;;;;;;;0.51;91.13;102862.78;5029941;28;19927;-63
2023/02/27 03:40:51;;;;;;;;;;;;;;;0.49;92.24;102856.81;5011615;28;20325;-64
2023/02/27 03:43:25;;;;;;;;;;;;;;;0.44;93.37;102861.19;5034890;28;19955;-63
2023/02/27 03:45:51;;;;;;;;;;;;;;;0.41;92.90;102866.41;5030702;28;20348;-64
2023/02/27 03:48:18;;;;;;;;;;;;;;;0.36;92.68;102856.19;5036287;28;19925;-63
2023/02/27 03:50:44;;;;;;;;;;;;;;;0.35;93.97;102859.66;5045145;28;19947;-64
2023/02/27 03:53:16;;;;;;;;;;;;;;;0.32;93.52;102856.28;5026934;28;19925;-67
2023/02/27 03:55:44;;;;;;;;;;;;;;;0.27;94.09;102858.94;5030432;28;19929;-63
2023/02/27 03:58:11;;;;;;;;;;;;;;;0.25;93.08;102859.84;5029746;28;20917;-64
2023/02/27 04:00:37;;;;;;;;;;;;;;;0.24;93.79;102861.59;5023575;28;19924;-71
2023/02/27 04:03:04;;;;;;;;;;;;;;;0.22;95.24;102873.69;5047641;28;19925;-71
2023/02/27 04:05:31;;;;;;;;;;;;;;;0.19;93.38;102871.13;5022256;28;19979;-68
2023/02/27 04:08:10;;;;;;;;;;;;;;;0.21;92.76;102878.88;5028074;28;19925;-71
2023/02/27 04:10:49;;;;;;;;;;;;;;;0.19;94.94;102884.03;5042980;28;19927;-70
2023/02/27 04:13:26;;;;;;;;;;;;;;;0.20;93.95;102883.19;5030392;28;19921;-70
2023/02/27 04:15:52;;;;;;;;;;;;;;;0.19;94.41;102884.03;5041894;28;19928;-70
2023/02/27 04:18:31;;;;;;;;;;;;;;;0.21;95.27;102890.03;5025459;28;20502;-68
2023/02/27 04:21:03;;;;;;;;;;;;;;;0.19;94.84;102886.63;5040040;28;19925;-70
2023/02/27 04:23:37;;;;;;;;;;;;;;;0.17;95.08;102888.38;5025833;28;20043;-70
2023/02/27 04:26:13;;;;;;;;;;;;;;;0.13;94.35;102897.91;5029400;28;19925;-68
2023/02/27 04:28:39;;;;;;;;;;;;;;;0.10;96.70;102894.53;5041459;28;19931;-69
2023/02/27 04:31:12;;;;;;;;;;;;;;;0.11;96.88;102897.09;5043651;28;19925;-71
2023/02/27 04:33:44;;;;;;;;;;;;;;;0.13;96.73;102895.34;5030443;28;19928;-70
2023/02/27 04:36:15;;;;;;;;;;;;;;;0.13;98.51;102891.91;5033356;28;19920;-69
2023/02/27 04:38:49;;;;;;;;;;;;;;;0.14;97.74;102891.03;5033756;28;19932;-70
2023/02/27 04:41:17;;;;;;;;;;;;;;;0.15;98.96;102890.16;5029007;28;19921;-71
2023/02/27 04:43:44;;;;;;;;;;;;;;;0.15;97.47;102900.47;5043428;28;20419;-70
2023/02/27 04:46:12;;;;;;;;;;;;;;;0.11;99.14;102906.56;5018867;28;20378;-71
2023/02/27 04:48:52;;;;;;;;;;;;;;;0.09;97.03;102898.00;5032210;28;19971;-70
2023/02/27 04:51:21;;;;;;;;;;;;;;;0.03;98.17;102911.03;5016341;28;19921;-70
2023/02/27 04:53:59;;;;;;;;;;;;;;;0.00;98.07;102906.78;5010814;28;19925;-71
2023/02/27 04:56:34;;;;;;;;;;;;;;;-0.04;97.59;102908.56;5021681;28;19932;-71
2023/02/27 04:59:15;;;;;;;;;;;;;;;-0.12;98.42;102915.53;5034006;28;20393;-71
2023/02/27 05:01:46;;;;;;;;;;;;;;;-0.18;100.00;102913.06;5034146;28;19930;-69
2023/02/27 05:04:14;;;;;;;;;;;;;;;-0.18;100.00;102923.41;5038792;28;20004;-70
2023/02/27 05:06:42;;;;;;;;;;;;;;;-0.22;100.00;102919.16;5038032;28;20288;-68
2023/02/27 05:09:19;;;;;;;;;;;;;;;-0.25;99.90;102921.81;5021171;28;20495;-69
2023/02/27 05:12:08;;;;;;;;;;;;;;;-0.29;100.00;102921.00;5040302;28;20327;-70
2023/02/27 05:14:37;;;;;;;;;;;;;;;-0.25;100.00;102924.41;5027926;28;19925;-70
2023/02/27 05:17:09;;;;;;;;;;;;;;;-0.24;100.00;102926.06;5025711;28;20432;-69
2023/02/27 05:19:38;;;;;;;;;;;;;;;-0.22;100.00;102932.94;5021079;28;19932;-70
2023/02/27 05:22:12;;;;;;;;;;;;;;;-0.28;100.00;102932.16;5027884;28;20095;-71
2023/02/27 05:24:48;;;;;;;;;;;;;;;-0.30;100.00;102929.59;5036901;28;20274;-69
2023/02/27 05:27:34;;;;;;;;;;;;;;;-0.35;100.00;102927.97;5042634;28;19925;-69
2023/02/27 05:30:08;;;;;;;;;;;;;;;-0.40;100.00;102934.06;5023866;28;20138;-67
2023/02/27 05:32:47;;;;;;;;;;;;;;;-0.40;100.00;102936.63;5018550;28;19935;-70
2023/02/27 05:35:14;;;;;;;;;;;;;;;-0.35;100.00;102943.44;5044508;28;19932;-71
2023/02/27 05:37:43;;;;;;;;;;;;;;;-0.39;100.00;102942.66;5025978;28;20385;-70
2023/02/27 05:40:12;;;;;;;;;;;;;;;-0.39;100.00;102945.25;4996362;28;1334711;-70
2023/02/27 05:42:41;;;;;;;;;;;;;;;-0.38;100.00;102943.50;5036452;28;19924;-70
2023/02/27 05:45:18;;;;;;;;;;;;;;;-0.40;100.00;102940.94;5038702;28;20370;-71
2023/02/27 05:47:48;;;;;;;;;;;;;;;-0.42;100.00;102940.13;5022803;28;19932;-68
2023/02/27 05:50:17;;;;;;;;;;;;;;;-0.40;100.00;102933.22;5044548;28;19924;-69
2023/02/27 05:52:44;;;;;;;;;;;;;;;-0.41;100.00;102942.69;5035039;28;19929;-69
2023/02/27 05:55:10;;;;;;;;;;;;;;;-0.36;100.00;102946.91;5031518;28;19925;-70
2023/02/27 05:57:37;;;;;;;;;;;;;;;-0.40;100.00;102946.94;5026433;28;20003;-71
2023/02/27 06:00:13;;;;;;;;;;;;;;;-0.43;100.00;102941.00;5022466;28;19948;-71
2023/02/27 06:02:41;;;;;;;;;;;;;;;-0.45;100.00;102946.19;5028116;28;20392;-70
2023/02/27 06:05:08;;;;;;;;;;;;;;;-0.46;100.00;102935.88;5022341;28;19995;-70
2023/02/27 06:07:34;;;;;;;;;;;;;;;-0.49;100.00;102938.50;5029234;28;19935;-71
2023/02/27 06:10:01;;;;;;;;;;;;;;;-0.48;100.00;102942.78;5018101;28;19971;-70
2023/02/27 06:12:27;;;;;;;;;;;;;;;-0.48;100.00;102940.22;5030970;28;19924;-71
2023/02/27 06:14:53;;;;;;;;;;;;;;;-0.47;100.00;102947.94;5044127;28;19928;-70
2023/02/27 06:17:20;;;;;;;;;;;;;;;-0.44;100.00;102953.03;5027570;28;19943;-70
2023/02/27 06:19:46;;;;;;;;;;;;;;;-0.40;100.00;102951.25;5036292;28;20415;-71
2023/02/27 06:22:13;;;;;;;;;;;;;;;-0.41;100.00;102950.41;5026704;28;20282;-68
2023/02/27 06:24:39;;;;;;;;;;;;;;;-0.37;100.00;102963.25;5033424;28;19928;-69
2023/02/27 06:27:05;;;;;;;;;;;;;;;-0.36;100.00;102965.81;5040659;28;19924;-71
2023/02/27 06:29:32;;;;;;;;;;;;;;;-0.37;100.00;102965.81;5026204;28;19924;-70
2023/02/27 06:31:58;;;;;;;;;;;;;;;-0.36;100.00;102962.38;5040045;28;20389;-71
2023/02/27 06:34:25;;;;;;;;;;;;;;;-0.36;100.00;102964.97;5032242;28;19986;-71
2023/02/27 06:36:51;;;;;;;;;;;;;;;-0.36;100.00;102976.13;5035545;28;20366;-67
2023/02/27 06:39:17;;;;;;;;;;;;;;;-0.38;100.00;102975.31;5031524;28;19928;-69
2023/02/27 06:41:44;;;;;;;;;;;;;;;-0.35;100.00;102976.97;5032177;28;19936;-69
2023/02/27 06:44:10;;;;;;;;;;;;;;;-0.32;100.00;102984.66;5039148;28;19979;-71
2023/02/27 06:46:36;;;;;;;;;;;;;;;-0.34;100.00;102979.53;5040859;28;19924;-71
2023/02/27 06:49:03;;;;;;;;;;;;;;;-0.25;100.00;102986.28;5043267;28;19983;-72
2023/02/27 06:51:29;;;;;;;;;;;;;;;-0.25;100.00;102988.88;5020044;28;19938;-70
2023/02/27 06:53:56;;;;;;;;;;;;;;;-0.24;100.00;102980.25;5028374;28;20024;-71
2023/02/27 06:56:22;;;;;;;;;;;;;;;-0.23;100.00;102995.72;5036497;28;19925;-71
2023/02/27 06:58:48;;;;;;;;;;;;;;;-0.21;100.00;102993.94;5038041;28;19921;-72
2023/02/27 07:01:15;;;;;;;;;;;;;;;-0.18;100.00;102993.03;5035591;28;19921;-72
2023/02/27 07:03:44;;;;;;;;;;;;;;;-0.12;100.00;102992.94;5037143;28;19929;-72
2023/02/27 07:06:11;;;;;;;;;;;;;;;-0.10;100.00;102990.34;5040810;28;19951;-71
2023/02/27 07:08:38;;;;;;;;;;;;;;;0.00;100.00;102999.66;5006012;28;19924;-71
2023/02/27 07:11:24;;;;;;;;;;;;;;;0.03;100.00;103001.34;5041766;28;19934;-71
2023/02/27 07:13:50;;;;;;;;;;;;;;;0.05;100.00;102999.59;5027569;28;19928;-71
2023/02/27 07:16:17;;;;;;;;;;;;;;;0.09;100.00;102999.50;5031260;28;20518;-72
2023/02/27 07:18:43;;;;;;;;;;;;;;;0.14;100.00;103002.03;5031042;28;19925;-70
2023/02/27 07:21:09;;;;;;;;;;;;;;;0.18;100.00;103008.84;5018492;28;19932;-70
2023/02/27 07:23:37;;;;;;;;;;;;;;;0.22;100.00;103010.47;5041825;28;19932;-70
2023/02/27 07:26:04;;;;;;;;;;;;;;;0.28;100.00;103012.97;5024333;28;19992;-71
2023/02/27 07:28:30;;;;;;;;;;;;;;;0.30;100.00;103006.03;5047599;28;19947;-71
2023/02/27 07:30:57;;;;;;;;;;;;;;;0.33;100.00;103007.72;5040651;28;19934;-70
2023/02/27 07:33:23;;;;;;;;;;;;;;;0.36;100.00;103012.84;5042885;28;19925;-71
2023/02/27 07:35:50;;;;;;;;;;;;;;;0.35;100.00;103017.16;5035371;28;20590;-72
2023/02/27 07:38:21;;;;;;;;;;;;;;;0.35;100.00;103005.94;5036503;28;20059;-69
2023/02/27 07:40:47;;;;;;;;;;;;;;;0.39;100.00;103017.91;5030565;28;19925;-71
2023/02/27 07:43:14;;;;;;;;;;;;;;;0.43;100.00;103010.97;5024361;28;20401;-70
2023/02/27 07:45:40;;;;;;;;;;;;;;;0.46;100.00;103019.53;5034251;28;20378;-68
2023/02/27 07:48:06;;;;;;;;;;;;;;;0.53;100.00;103020.25;5030964;28;19925;-70
2023/02/27 07:50:33;;;;;;;;;;;;;;;0.58;100.00;103015.88;5028302;28;20444;-71
2023/02/27 07:52:59;;;;;;;;;;;;;;;0.61;100.00;103023.59;5040870;28;19925;-70
2023/02/27 07:55:25;;;;;;;;;;;;;;;0.66;100.00;103026.06;4999382;28;19925;-69
2023/02/27 07:57:51;;;;;;;;;;;;;;;0.69;100.00;103026.88;5032498;28;19932;-70
2023/02/27 08:00:18;;;;;;;;;;;;;;;0.73;100.00;103025.09;5032712;28;19999;-70
2023/02/27 08:02:45;;;;;;;;;;;;;;;0.76;100.00;103037.94;5034105;28;19971;-70
2023/02/27 08:05:11;;;;;;;;;;;;;;;0.79;100.00;103035.31;5032639;28;20370;-70
2023/02/27 08:07:38;;;;;;;;;;;;;;;0.82;100.00;103036.97;5029361;28;19971;-71
2023/02/27 08:10:04;;;;;;;;;;;;;;;0.85;100.00;103032.59;5055889;28;20300;-70
2023/02/27 08:12:31;;;;;;;;;;;;;;;0.88;100.00;103040.31;5039434;28;19969;-70
2023/02/27 08:14:57;;;;;;;;;;;;;;;0.89;100.00;103030.81;5040349;28;20388;-71
2023/02/27 08:17:24;;;;;;;;;;;;;;;0.90;100.00;103040.25;5031330;28;20517;-71
2023/02/27 08:19:50;;;;;;;;;;;;;;;0.94;100.00;103037.59;5037173;28;19947;-69
2023/02/27 08:22:16;;;;;;;;;;;;;;;0.98;100.00;103039.25;5028004;28;19925;-70
2023/02/27 08:24:43;;;;;;;;;;;;;;;1.02;100.00;103046.91;5038007;28;20370;-70
2023/02/27 08:27:09;;;;;;;;;;;;;;;1.06;100.00;103041.69;5035465;28;19936;-70
2023/02/27 08:29:35;;;;;;;;;;;;;;;1.10;100.00;103043.31;5021843;28;19956;-70
2023/02/27 08:32:03;;;;;;;;;;;;;;;1.15;100.00;103038.03;5038781;28;20015;-70
2023/02/27 08:34:30;;;;;;;;;;;;;;;1.19;100.00;103042.25;5034434;28;19936;-70
2023/02/27 08:36:56;;;;;;;;;;;;;;;1.26;100.00;103049.03;5043356;28;19924;-71
2023/02/27 08:39:25;;;;;;;;;;;;;;;1.30;100.00;103048.06;5035020;28;19935;-69
2023/02/27 08:41:51;;;;;;;;;;;;;;;1.39;100.00;103047.03;5029235;28;19925;-70
2023/02/27 08:44:18;;;;;;;;;;;;;;;1.46;100.00;103051.19;5044915;28;20439;-71
2023/02/27 08:46:45;;;;;;;;;;;;;;;1.52;100.00;103050.22;5037495;28;19928;-69
2023/02/27 08:49:11;;;;;;;;;;;;;;;1.60;99.31;103055.22;5033621;28;20697;-70
2023/02/27 08:51:38;;;;;;;;;;;;;;;1.63;98.89;103055.13;5026259;28;19931;-68
2023/02/27 08:54:04;;;;;;;;;;;;;;;1.66;99.80;103055.94;5025104;28;19979;-71
2023/02/27 08:56:32;;;;;;;;;;;;;;;1.70;99.12;103060.16;5036246;28;19979;-70
2023/02/27 08:58:59;;;;;;;;;;;;;;;1.75;98.31;103054.88;5020369;28;19932;-71
2023/02/27 09:01:33;;;;;;;;;;;;;;;1.80;97.26;103060.78;5038567;28;19933;-70
2023/02/27 09:04:03;;;;;;;;;;;;;;;1.88;95.57;103058.91;5028223;28;19924;-71
2023/02/27 09:06:30;;;;;;;;;;;;;;;1.92;95.60;103064.84;5028652;28;20080;-71
2023/02/27 09:08:57;;;;;;;;;;;;;;;1.96;95.65;103061.28;5021941;28;20038;-71
2023/02/27 09:11:24;;;;;;;;;;;;;;;1.97;94.99;103063.84;5037217;28;20047;-71
2023/02/27 09:13:51;;;;;;;;;;;;;;;2.02;92.12;103070.66;5034822;28;19958;-69
2023/02/27 09:16:18;;;;;;;;;;;;;;;2.06;91.72;103067.09;5025269;28;19925;-71
2023/02/27 09:18:48;;;;;;;;;;;;;;;2.08;92.00;103073.97;5028758;28;19947;-71
2023/02/27 09:21:14;;;;;;;;;;;;;;;2.13;92.63;103073.84;5022977;28;20296;-72
2023/02/27 09:23:41;;;;;;;;;;;;;;;2.15;90.74;103065.16;5020329;28;19924;-71
2023/02/27 09:26:09;;;;;;;;;;;;;;;2.23;91.07;103074.47;5026622;28;19929;-72
2023/02/27 09:28:36;;;;;;;;;;;;;;;2.31;90.82;103070.84;5033869;28;19929;-69
2023/02/27 09:31:07;;;;;;;;;;;;;;;2.33;91.49;103069.06;5033158;28;19925;-70
2023/02/27 09:33:34;;;;;;;;;;;;;;;2.41;90.10;103074.06;5026737;28;20255;-68
2023/02/27 09:36:04;;;;;;;;;;;;;;;2.56;87.85;103072.78;5022971;28;20399;-68
2023/02/27 09:38:31;;;;;;;;;;;;;;;2.58;87.97;103073.59;5025301;28;19968;-71
2023/02/27 09:40:58;;;;;;;;;;;;;;;2.66;87.67;103063.03;5032112;28;19978;-71
2023/02/27 09:43:31;;;;;;;;;;;;;;;2.74;86.25;103067.16;5027698;28;20364;-77
2023/02/27 09:45:59;;;;;;;;;;;;;;;2.84;85.50;103069.47;5026567;28;20008;-71
2023/02/27 09:48:26;;;;;;;;;;;;;;;2.92;85.25;103075.31;5030352;28;20023;-71
2023/02/27 09:50:58;;;;;;;;;;;;;;;3.01;84.65;103069.88;5037238;28;19925;-72
2023/02/27 09:53:29;;;;;;;;;;;;;;;3.05;85.06;103063.72;5036594;28;19925;-73
2023/02/27 09:56:00;;;;;;;;;;;;;;;3.08;83.35;103070.56;5019675;28;19990;-72
2023/02/27 09:58:36;;;;;;;;;;;;;;;3.17;82.75;103065.09;5032247;28;19925;-71
2023/02/27 10:01:02;;;;;;;;;;;;;;;3.28;81.84;103068.25;5020519;28;20617;-72
2023/02/27 10:03:42;;;;;;;;;;;;;;;3.36;83.19;103071.47;5021176;28;19921;-72
2023/02/27 10:06:14;;;;;;;;;;;;;;;3.46;81.70;103068.63;5017797;28;19925;-71
2023/02/27 10:08:59;;;;;;;;;;;;;;;3.56;82.31;103070.88;5035127;28;19921;-71
2023/02/27 10:11:49;;;;;;;;;;;;;;;3.73;79.80;103072.13;5031207;28;20366;-71
2023/02/27 10:14:17;;;;;;;;;;;;;;;3.87;77.81;103062.16;5027434;28;19954;-72
2023/02/27 10:16:46;;;;;;;;;;;;;;;3.99;77.15;103071.31;5028157;28;20430;-71
2023/02/27 10:19:15;;;;;;;;;;;;;;;4.09;75.31;103067.53;5023992;28;19924;-71
2023/02/27 10:21:44;;;;;;;;;;;;;;;4.18;74.16;103063.81;5037779;28;19925;-71
2023/02/27 10:24:29;;;;;;;;;;;;;;;4.32;75.03;103059.00;5033263;28;19932;-71
2023/02/27 10:27:01;;;;;;;;;;;;;;;4.46;75.21;103058.53;5029472;28;19921;-72
2023/02/27 10:29:28;;;;;;;;;;;;;;;4.63;77.30;103050.16;5023923;28;20497;-72
2023/02/27 10:32:12;;;;;;;;;;;;;;;4.77;72.57;103052.28;5025755;28;20635;-72
2023/02/27 10:34:40;;;;;;;;;;;;;;;4.92;71.42;103050.88;5021094;28;19925;-71
2023/02/27 10:37:11;;;;;;;;;;;;;;;5.07;71.80;103052.09;5033167;28;19925;-72
2023/02/27 10:39:51;;;;;;;;;;;;;;;5.24;71.40;103049.72;5030629;28;20020;-71
2023/02/27 10:42:18;;;;;;;;;;;;;;;5.44;71.20;103051.56;5046142;28;20815;-72
2023/02/27 10:44:52;;;;;;;;;;;;;;;5.62;70.68;103052.59;5038616;28;20022;-72
2023/02/27 10:47:22;;;;;;;;;;;;;;;5.76;68.53;103049.47;5027548;28;20569;-71
2023/02/27 10:49:49;;;;;;;;;;;;;;;5.93;68.08;103043.59;5044618;28;19936;-72
2023/02/27 10:52:16;;;;;;;;;;;;;;;6.07;66.85;103045.66;5033258;28;19929;-73
2023/02/27 10:54:43;;;;;;;;;;;;;;;6.22;67.67;103045.03;5032559;28;19929;-72
2023/02/27 10:57:26;;;;;;;;;;;;;;;6.34;64.79;103041.91;5027712;28;19932;-72
2023/02/27 10:59:54;;;;;;;;;;;;;;;6.49;63.50;103027.41;5038886;28;19925;-71
2023/02/27 11:02:25;;;;;;;;;;;;;;;6.63;63.65;103029.41;5039865;28;20028;-73
2023/02/27 11:04:53;;;;;;;;;;;;;;;6.81;62.61;103025.16;5010165;28;19925;-71
2023/02/27 11:07:27;;;;;;;;;;;;;;;6.93;61.68;103018.53;5033376;28;19971;-73
2023/02/27 11:09:58;;;;;;;;;;;;;;;7.16;62.23;103017.50;5028406;28;19925;-73
2023/02/27 11:12:27;;;;;;;;;;;;;;;7.41;62.74;103016.34;5034095;28;19978;-72
2023/02/27 11:15:00;;;;;;;;;;;;;;;7.65;61.69;103009.97;5030413;28;19931;-71
2023/02/27 11:17:33;;;;;;;;;;;;;;;7.85;58.78;102998.53;5025614;28;19925;-73
2023/02/27 11:20:04;;;;;;;;;;;;;;;7.87;59.18;103001.09;5028312;28;19932;-71
2023/02/27 11:22:31;;;;;;;;;;;;;;;8.08;58.44;102999.19;5052158;28;19924;-72
2023/02/27 11:25:17;;;;;;;;;;;;;;;8.25;57.00;102993.09;5040174;28;19931;-72
2023/02/27 11:27:51;;;;;;;;;;;;;;;8.42;54.96;102987.88;5021751;28;19925;-72
2023/02/27 11:30:22;;;;;;;;;;;;;;;8.58;54.01;102985.31;5029029;28;19925;-72
2023/02/27 11:32:50;;;;;;;;;;;;;;;8.69;53.70;102995.22;5025483;28;19935;-72
2023/02/27 11:35:19;;;;;;;;;;;;;;;8.61;54.06;102984.31;5023556;28;19972;-72
2023/02/27 11:37:48;;;;;;;;;;;;;;;8.79;53.74;102988.56;5015727;28;19963;-73
2023/02/27 11:40:18;;;;;;;;;;;;;;;8.93;52.96;102993.06;5026745;28;19952;-72
2023/02/27 11:42:47;;;;;;;;;;;;;;;9.02;53.22;102979.50;5045951;28;19925;-70
2023/02/27 11:45:22;;;;;;;;;;;;;;;9.15;51.43;102986.66;5027939;28;19931;-71
2023/02/27 11:48:11;;;;;;;;;;;;;;;9.19;49.99;102982.94;5047479;28;19925;-71
2023/02/27 11:50:56;;;;;;;;;;;;;;;9.33;51.02;102975.19;5031867;28;19960;-70
2023/02/27 11:53:46;;;;;;;;;;;;;;;9.54;51.75;102975.75;5026936;28;19925;-70
2023/02/27 11:56:16;;;;;;;;;;;;;;;9.55;50.85;102974.81;5024670;28;19968;-72
2023/02/27 11:58:47;;;;;;;;;;;;;;;9.63;54.10;102971.78;5034920;28;19921;-71
2023/02/27 12:01:36;;;;;;;;;;;;;;;9.57;49.56;102962.47;5030703;28;19928;-70
2023/02/27 12:04:08;;;;;;;;;;;;;;;9.76;51.83;102966.66;5026017;28;19925;-74
2023/02/27 12:07:03;;;;;;;;;;;;;;;9.86;51.50;102960.81;5037767;28;19924;-71
2023/02/27 12:09:30;;;;;;;;;;;;;;;9.85;49.17;102964.34;5004744;28;19928;-72
2023/02/27 12:12:01;;;;;;;;;;;;;;;9.74;50.60;102965.91;5031590;28;19963;-71
2023/02/27 12:14:32;;;;;;;;;;;;;;;9.84;49.54;102967.91;5037286;28;20246;-71
2023/02/27 12:17:08;;;;;;;;;;;;;;;9.82;53.49;102972.41;5033940;28;19924;-70
2023/02/27 12:19:39;;;;;;;;;;;;;;;9.83;52.26;102968.00;5024815;28;20444;-71
2023/02/27 12:22:14;;;;;;;;;;;;;;;9.72;51.84;102960.75;5034748;28;19958;-70
2023/02/27 12:24:46;;;;;;;;;;;;;;;9.86;52.32;102959.97;5039289;28;19924;-69
2023/02/27 12:27:16;;;;;;;;;;;;;;;10.08;53.39;102960.38;5034402;28;20398;-70
2023/02/27 12:30:11;;;;;;;;;;;;;;;10.02;51.60;102959.91;5026414;28;19977;-71
2023/02/27 12:32:49;;;;;;;;;;;;;;;10.08;50.63;102952.50;5038433;28;20289;-72
2023/02/27 12:35:26;;;;;;;;;;;;;;;10.09;50.04;102959.47;5036799;28;20309;-71
2023/02/27 12:37:53;;;;;;;;;;;;;;;10.02;49.23;102944.19;5030177;28;19932;-71
2023/02/27 12:40:32;;;;;;;;;;;;;;;9.97;49.18;102957.53;5025188;28;19925;-71
2023/02/27 12:43:17;;;;;;;;;;;;;;;9.80;51.42;102968.16;5040688;28;19925;-71
2023/02/27 12:46:03;;;;;;;;;;;;;;;9.61;51.35;102957.91;5022749;28;19974;-72
2023/02/27 12:48:30;;;;;;;;;;;;;;;9.40;49.84;102959.97;5030174;28;19929;-71
2023/02/27 12:51:12;;;;;;;;;;;;;;;9.18;49.69;102957.72;5037109;28;19943;-71
2023/02/27 12:53:41;;;;;;;;;;;;;;;9.16;51.07;102954.34;5012033;28;19924;-71
2023/02/27 12:56:19;;;;;;;;;;;;;;;9.17;54.04;102967.31;5035180;28;20289;-72
2023/02/27 12:59:02;;;;;;;;;;;;;;;9.21;52.79;102961.00;5023335;28;20348;-71